Time;durP1;ratioP1;P1;durP2;ratioP2;P2;SDS_P1;SDS_P2;PMS_P1;PMS_P2;Temp;Humidity;BMP_temperature;BMP_pressure;BME280_temperature;BME280_humidity;BME280_pressure;Samples;Min_cycle;Max_cycle;Signal;HPM_P1;HPM_P2
2022/11/25 00:01:11;;;;;;;3.90;2.73;;;;;;;-141.97;59.08;47795.88;4961670;29;20195;-87
2022/11/25 00:03:37;;;;;;;4.17;3.30;;;;;;;-141.97;59.24;47751.66;4963900;29;20160;-87
2022/11/25 00:06:20;;;;;;;3.80;2.87;;;;;;;-141.97;59.22;47807.41;4977654;28;20173;-87
2022/11/25 00:08:48;;;;;;;3.90;3.27;;;;;;;-141.97;59.02;47786.25;4963476;29;20267;-87
2022/11/25 00:11:15;;;;;;;4.90;3.57;;;;;;;-141.97;59.25;47768.94;4963355;29;20165;-87
2022/11/25 00:13:42;;;;;;;5.70;2.93;;;;;;;-141.97;59.38;47807.41;4964444;29;20614;-87
2022/11/25 00:16:14;;;;;;;5.10;2.80;;;;;;;-141.97;58.89;47780.47;4965060;29;20175;-87
2022/11/25 00:18:42;;;;;;;4.47;2.90;;;;;;;-141.97;59.34;47811.25;4965272;28;20549;-87
2022/11/25 00:21:10;;;;;;;4.63;3.30;;;;;;;-141.97;59.25;47817.00;4958084;28;20168;-87
2022/11/25 00:23:36;;;;;;;4.27;2.97;;;;;;;-141.97;59.21;47795.88;4991460;28;20215;-86
2022/11/25 00:26:15;;;;;;;4.47;3.17;;;;;;;-141.97;59.42;47788.19;4997180;28;20147;-87
2022/11/25 00:28:43;;;;;;;7.67;3.40;;;;;;;-141.97;59.29;47807.41;4996398;28;20667;-86
2022/11/25 00:31:12;;;;;;;5.03;3.50;;;;;;;-141.97;59.69;47749.72;5005542;28;20195;-86
2022/11/25 00:33:39;;;;;;;4.43;3.03;;;;;;;-141.97;58.96;47818.94;5007151;28;20163;-87
2022/11/25 00:36:06;;;;;;;3.90;2.93;;;;;;;-141.97;59.28;47705.53;4986513;28;20664;-87
2022/11/25 00:38:32;;;;;;;4.90;3.20;;;;;;;-141.97;59.71;47778.56;4996444;28;20931;-87
2022/11/25 00:46:25;;;;;;;4.27;3.13;;;;;;;-141.97;58.85;47799.72;5002237;28;20167;-86
2022/11/25 00:48:51;;;;;;;5.50;3.37;;;;;;;-141.97;59.02;47795.88;4979835;28;20195;-87
2022/11/25 00:51:17;;;;;;;3.50;2.70;;;;;;;-141.97;58.90;47793.94;5000108;28;20283;-87
2022/11/25 00:53:42;;;;;;;4.20;2.80;;;;;;;-141.97;58.57;47726.66;5007830;28;20154;-88
2022/11/25 00:56:14;;;;;;;4.33;3.17;;;;;;;-141.97;58.36;47753.56;5015241;28;20167;-87
2022/11/25 00:58:40;;;;;;;3.50;2.60;;;;;;;-141.97;58.59;47820.84;5009381;28;20222;-87
2022/11/25 01:01:06;;;;;;;3.43;2.80;;;;;;;-141.97;57.98;47784.34;5008324;28;20167;-87
2022/11/25 01:03:33;;;;;;;4.60;3.20;;;;;;;-141.97;57.96;47807.41;5002546;28;20167;-87
2022/11/25 01:06:04;;;;;;;4.10;2.57;;;;;;;-141.97;57.74;47811.25;4993357;28;20164;-85
2022/11/25 01:08:31;;;;;;;3.77;2.70;;;;;;;-141.97;57.71;47868.91;4993051;28;20270;-86
2022/11/25 01:10:58;;;;;;;2.67;2.10;;;;;;;-141.97;57.04;47820.84;4993155;28;20560;-86
2022/11/25 01:13:23;;;;;;;3.63;2.47;;;;;;;-141.97;57.17;47711.28;4992675;28;20198;-86
2022/11/25 01:15:49;;;;;;;3.20;2.70;;;;;;;-141.97;57.53;47822.78;4992759;28;20628;-86
2022/11/25 01:18:14;;;;;;;3.00;2.03;;;;;;;-141.97;57.76;47772.78;4975704;28;20253;-86
2022/11/25 01:20:39;;;;;;;3.83;2.60;;;;;;;-141.97;57.47;47697.84;4975009;28;20167;-86
2022/11/25 01:23:05;;;;;;;4.10;2.63;;;;;;;-141.97;57.39;47784.34;4992016;28;20314;-86
2022/11/25 01:25:30;;;;;;;3.20;2.37;;;;;;;-141.97;57.08;47701.69;4991320;28;20265;-86
2022/11/25 01:27:56;;;;;;;2.50;2.03;;;;;;;-141.97;57.66;47876.59;4990612;28;20185;-86
2022/11/25 01:30:21;;;;;;;3.23;2.57;;;;;;;-141.97;57.18;47849.69;4992325;28;20326;-86
2022/11/25 01:32:46;;;;;;;3.20;2.50;;;;;;;-141.97;57.30;47768.94;4992024;28;20167;-86
2022/11/25 01:35:12;;;;;;;4.23;2.60;;;;;;;-141.97;57.41;47822.78;4992214;28;20612;-86
2022/11/25 01:37:37;;;;;;;4.10;2.27;;;;;;;-141.97;57.69;47911.19;4992437;28;20171;-86
2022/11/25 01:40:03;;;;;;;4.37;2.80;;;;;;;-141.97;57.93;47801.63;4975580;28;20163;-86
2022/11/25 01:42:30;;;;;;;3.70;2.40;;;;;;;-141.97;58.00;47807.41;4978056;28;20193;-86
2022/11/25 01:45:23;;;;;;;9.27;2.57;;;;;;;-141.97;58.11;47784.34;4996436;28;20170;-86
2022/11/25 01:47:52;;;;;;;4.57;2.13;;;;;;;-141.97;58.26;47730.50;4996496;28;20163;-86
2022/11/25 01:50:19;;;;;;;3.87;2.60;;;;;;;-141.97;58.21;47765.09;4996003;28;20198;-86
2022/11/25 01:52:49;;;;;;;3.63;2.70;;;;;;;-141.97;58.21;47717.06;4996208;28;20563;-86
2022/11/25 01:55:20;;;;;;;3.87;2.40;;;;;;;-141.97;58.62;47763.19;4996793;28;20163;-86
2022/11/25 01:58:00;;;;;;;3.87;2.90;;;;;;;-141.97;58.84;47788.19;4996554;28;20174;-86
2022/11/25 02:00:26;;;;;;;4.40;2.47;;;;;;;-141.97;58.90;47811.25;4994828;28;20206;-86
2022/11/25 02:02:54;;;;;;;3.73;2.80;;;;;;;-141.97;58.79;47765.09;4979201;28;20273;-87
2022/11/25 02:05:23;;;;;;;5.10;3.30;;;;;;;-141.97;58.91;47770.88;4996482;28;20591;-87
2022/11/25 02:07:50;;;;;;;3.73;2.93;;;;;;;-141.97;58.82;47878.53;4994859;28;20175;-86
2022/11/25 02:10:21;;;;;;;3.67;2.97;;;;;;;-141.97;59.02;47807.41;4978423;28;20199;-85
2022/11/25 02:12:47;;;;;;;3.87;2.60;;;;;;;-141.97;58.98;47761.25;4978396;28;20199;-85
2022/11/25 02:15:15;;;;;;;4.77;3.10;;;;;;;-141.97;58.73;47678.63;4995796;28;20192;-86
2022/11/25 02:17:42;;;;;;;4.43;3.57;;;;;;;-141.97;58.80;47792.03;4996279;28;20167;-86
2022/11/25 02:20:19;;;;;;;5.27;4.07;;;;;;;-141.97;58.81;47803.56;4996094;28;20218;-86
2022/11/25 02:23:05;;;;;;;5.97;4.33;;;;;;;-141.97;58.96;47807.41;4995859;28;20322;-86
2022/11/25 02:25:36;;;;;;;6.40;3.13;;;;;;;-141.97;58.77;47705.53;4998364;28;20198;-85
2022/11/25 02:28:15;;;;;;;5.03;3.80;;;;;;;-141.97;58.81;47786.25;5018820;28;20167;-86
2022/11/25 02:30:40;;;;;;;6.13;3.30;;;;;;;-141.97;59.03;47803.56;4995852;28;20601;-86
2022/11/25 02:33:06;;;;;;;5.03;3.50;;;;;;;-141.97;58.74;47709.38;4994934;28;20231;-86
2022/11/25 02:35:38;;;;;;;4.33;3.33;;;;;;;-141.97;59.04;47792.03;4995440;28;20173;-86
2022/11/25 02:38:08;;;;;;;6.03;3.50;;;;;;;-141.97;58.96;47830.47;4995717;28;20199;-87
2022/11/25 02:40:48;;;;;;;6.10;3.93;;;;;;;-141.97;58.85;47926.56;4995332;28;20626;-86
2022/11/25 02:43:15;;;;;;;6.60;3.60;;;;;;;-141.97;58.78;47715.13;4995314;28;20170;-86
2022/11/25 02:45:49;;;;;;;7.37;5.17;;;;;;;-141.97;58.57;47853.53;4995246;28;20610;-88
2022/11/25 02:48:14;;;;;;;5.90;3.87;;;;;;;-141.97;58.15;47886.22;4995348;28;20198;-86
2022/11/25 02:50:40;;;;;;;4.83;3.60;;;;;;;-141.97;58.16;47680.53;4995797;28;20632;-86
2022/11/25 02:53:06;;;;;;;4.33;3.13;;;;;;;-141.97;57.73;47755.50;4994845;28;20168;-86
2022/11/25 02:55:32;;;;;;;4.23;3.33;;;;;;;-141.97;57.37;47801.63;4995155;28;20643;-86
2022/11/25 02:57:57;;;;;;;4.87;3.73;;;;;;;-141.97;57.66;47632.47;4994933;28;20167;-86
2022/11/25 03:00:23;;;;;;;6.67;4.50;;;;;;;-141.97;57.69;47772.78;4995016;28;20163;-86
2022/11/25 03:02:52;;;;;;;4.80;3.40;;;;;;;-141.97;57.14;47815.09;4994787;28;20255;-85
2022/11/25 03:05:17;;;;;;;5.03;3.60;;;;;;;-141.97;57.50;47761.25;4994868;28;20172;-86
2022/11/25 03:07:42;;;;;;;5.33;3.30;;;;;;;-141.97;56.93;47670.91;4993673;28;20191;-89
2022/11/25 03:10:08;;;;;;;4.63;3.20;;;;;;;-141.97;57.34;47895.81;4977455;28;20218;-85
2022/11/25 03:12:34;;;;;;;5.00;3.40;;;;;;;-141.97;56.83;47761.25;4994952;28;20237;-86
2022/11/25 03:14:59;;;;;;;6.50;3.43;;;;;;;-141.97;57.32;47872.75;4994756;28;20191;-86
2022/11/25 03:17:24;;;;;;;4.93;3.40;;;;;;;-141.97;56.97;47803.56;5004602;28;20212;-88
2022/11/25 03:19:50;;;;;;;6.43;3.50;;;;;;;-141.97;57.32;47795.88;5016437;28;20164;-86
2022/11/25 03:22:15;;;;;;;5.90;3.20;;;;;;;-141.97;57.34;47830.47;5007651;28;20163;-87
2022/11/25 03:24:41;;;;;;;4.07;2.83;;;;;;;-141.97;57.14;47853.53;4995387;28;20171;-86
2022/11/25 03:27:06;;;;;;;5.30;3.37;;;;;;;-141.97;56.93;47738.19;4994475;28;20171;-86
2022/11/25 03:29:31;;;;;;;5.50;3.67;;;;;;;-141.97;57.03;47807.41;4976689;28;20671;-86
2022/11/25 03:31:57;;;;;;;4.30;3.33;;;;;;;-141.97;57.22;47707.44;4976767;28;20186;-86
2022/11/25 03:34:22;;;;;;;7.43;3.70;;;;;;;-141.97;57.01;47776.63;4992879;28;20213;-86
2022/11/25 03:36:48;;;;;;;5.73;3.73;;;;;;;-141.97;56.80;47743.97;4994412;28;20171;-86
2022/11/25 03:39:13;;;;;;;6.27;4.00;;;;;;;-141.97;57.17;47853.53;4994515;28;20222;-86
2022/11/25 03:41:38;;;;;;;6.10;3.37;;;;;;;-141.97;57.34;47669.00;4994183;28;20164;-86
2022/11/25 03:44:04;;;;;;;4.30;3.13;;;;;;;-141.97;56.81;47772.78;4993083;28;20210;-86
2022/11/25 03:46:29;;;;;;;5.63;3.97;;;;;;;-141.97;56.88;47803.56;4993043;28;20233;-87
2022/11/25 03:48:55;;;;;;;5.53;3.50;;;;;;;-141.97;57.02;47782.41;4992675;28;20210;-87
2022/11/25 03:51:20;;;;;;;5.93;3.40;;;;;;;-141.97;56.93;47880.44;4993984;28;20168;-88
2022/11/25 03:53:45;;;;;;;5.50;3.97;;;;;;;-141.97;56.72;47749.72;4995161;28;20175;-89
2022/11/25 03:56:11;;;;;;;6.20;4.13;;;;;;;-141.97;56.91;47734.34;4994456;28;20235;-87
2022/11/25 03:58:36;;;;;;;10.07;5.30;;;;;;;-141.97;56.85;47811.25;4992857;28;20175;-88
2022/11/25 04:01:02;;;;;;;8.67;5.40;;;;;;;-141.97;56.68;47793.94;4994263;28;20191;-87
2022/11/25 04:03:28;;;;;;;8.67;5.20;;;;;;;-141.97;57.12;47903.50;4993956;28;20663;-87
2022/11/25 04:05:54;;;;;;;8.63;5.60;;;;;;;-141.97;56.84;47803.56;4993273;28;20180;-85
2022/11/25 04:08:20;;;;;;;7.17;4.83;;;;;;;-141.97;56.65;47788.19;4993665;28;20164;-86
2022/11/25 04:10:48;;;;;;;6.87;4.03;;;;;;;-141.97;56.58;47734.34;4993883;28;20206;-86
2022/11/25 04:13:14;;;;;;;8.93;5.47;;;;;;;-141.97;56.48;47861.22;4994182;28;20640;-86
2022/11/25 04:15:46;;;;;;;20.97;10.20;;;;;;;-141.97;56.62;47751.66;4994066;28;20255;-86
2022/11/25 04:18:13;;;;;;;7.80;4.43;;;;;;;-141.97;56.57;47726.66;4994663;28;20230;-86
2022/11/25 04:20:39;;;;;;;6.83;4.47;;;;;;;-141.97;56.53;47738.19;4993586;28;20167;-86
2022/11/25 04:23:07;;;;;;;8.23;5.00;;;;;;;-141.97;56.11;47747.81;4993923;28;20596;-86
2022/11/25 04:25:34;;;;;;;8.97;3.87;;;;;;;-141.97;56.41;47715.13;4995414;28;20160;-88
2022/11/25 04:27:59;;;;;;;6.43;3.87;;;;;;;-141.97;56.65;47761.25;5004826;28;20167;-87
2022/11/25 04:30:25;;;;;;;5.70;3.83;;;;;;;-141.97;56.49;47763.19;5004608;28;20329;-87
2022/11/25 04:32:50;;;;;;;8.40;5.00;;;;;;;-141.97;56.68;47880.44;5005015;28;20174;-87
2022/11/25 04:35:16;;;;;;;5.47;3.97;;;;;;;-141.97;56.82;47749.72;4984315;28;20172;-87
2022/11/25 04:37:41;;;;;;;5.73;3.77;;;;;;;-141.97;57.04;47782.41;4994541;28;20163;-87
2022/11/25 04:40:07;;;;;;;4.30;3.20;;;;;;;-141.97;57.55;47743.97;4994709;28;20163;-87
2022/11/25 04:42:35;;;;;;;6.50;3.80;;;;;;;-141.97;57.52;47776.63;4999803;28;20167;-87
2022/11/25 04:45:09;;;;;;;5.03;3.43;;;;;;;-141.97;57.78;47678.63;4993859;28;20628;-87
2022/11/25 04:47:35;;;;;;;5.60;3.83;;;;;;;-141.97;57.51;47680.53;4992738;28;20210;-87
2022/11/25 04:50:01;;;;;;;4.47;3.20;;;;;;;-141.97;57.27;47772.78;4993415;28;20238;-87
2022/11/25 04:52:26;;;;;;;6.00;4.23;;;;;;;-141.97;57.57;47676.69;4993471;28;20164;-87
2022/11/25 04:54:52;;;;;;;7.13;3.80;;;;;;;-141.97;57.60;47845.84;4993161;28;20163;-88
2022/11/25 04:57:18;;;;;;;5.83;3.80;;;;;;;-141.97;57.83;47780.47;4994039;28;20173;-87
2022/11/25 04:59:44;;;;;;;4.83;3.13;;;;;;;-141.97;58.42;47780.47;4994033;28;20164;-87
2022/11/25 05:02:21;;;;;;;5.03;3.87;;;;;;;-141.97;57.90;47776.63;4993474;28;20254;-87
2022/11/25 05:04:50;;;;;;;5.83;2.97;;;;;;;-141.97;57.88;47799.72;4997857;28;20642;-86
2022/11/25 05:07:17;;;;;;;6.77;4.00;;;;;;;-141.97;57.63;47745.88;5016060;28;20156;-88
2022/11/25 05:09:43;;;;;;;4.60;3.50;;;;;;;-141.97;58.08;47680.53;4997900;28;20230;-87
2022/11/25 05:12:14;;;;;;;8.50;4.07;;;;;;;-141.97;58.44;47795.88;4994579;28;20206;-86
2022/11/25 05:14:40;;;;;;;8.83;5.10;;;;;;;-141.97;58.60;47863.13;4993198;28;20163;-87
2022/11/25 05:17:06;;;;;;;6.77;4.93;;;;;;;-141.97;58.19;47834.31;4992554;28;20251;-86
2022/11/25 05:19:32;;;;;;;7.50;3.90;;;;;;;-141.97;58.19;47738.19;4992569;28;20550;-86
2022/11/25 05:21:57;;;;;;;7.20;4.33;;;;;;;-141.97;57.45;47763.19;4992638;28;20637;-85
2022/11/25 05:24:24;;;;;;;7.17;4.10;;;;;;;-141.97;57.03;47745.88;4992863;28;20227;-87
2022/11/25 05:26:50;;;;;;;7.40;4.07;;;;;;;-141.97;56.56;47747.81;4970713;28;20227;-87
2022/11/25 05:29:15;;;;;;;5.57;3.70;;;;;;;-141.97;56.46;47742.03;4990210;28;20601;-86
2022/11/25 05:31:40;;;;;;;5.10;3.20;;;;;;;-141.97;56.45;47761.25;4988502;28;20253;-87
2022/11/25 05:34:06;;;;;;;5.90;3.87;;;;;;;-141.97;56.30;47745.88;4990681;28;20199;-87
2022/11/25 05:36:31;;;;;;;5.30;3.90;;;;;;;-141.97;56.74;47767.03;4991096;28;20547;-86
2022/11/25 05:38:58;;;;;;;7.83;3.57;;;;;;;-141.97;56.53;47757.41;4991928;28;20725;-86
2022/11/25 05:41:23;;;;;;;5.80;3.37;;;;;;;-141.97;57.14;47761.25;4993570;28;20201;-86
2022/11/25 05:43:49;;;;;;;6.33;3.50;;;;;;;-141.97;56.71;47826.63;4994738;28;20235;-86
2022/11/25 05:46:14;;;;;;;7.53;3.67;;;;;;;-141.97;56.59;47747.81;5011091;28;20229;-87
2022/11/25 05:48:40;;;;;;;6.90;4.07;;;;;;;-141.97;56.79;47772.78;5000868;28;20295;-86
2022/11/25 05:51:05;;;;;;;3.67;2.77;;;;;;;-141.97;56.97;47811.25;4991278;28;20808;-86
2022/11/25 05:53:31;;;;;;;9.50;3.40;;;;;;;-141.97;56.98;47786.25;4991126;28;20179;-85
2022/11/25 05:56:02;;;;;;;4.37;3.23;;;;;;;-141.97;56.80;47768.94;4974884;28;20192;-87
2022/11/25 05:58:29;;;;;;;4.83;3.27;;;;;;;-141.97;56.99;47768.94;4993115;28;20211;-87
2022/11/25 06:00:55;;;;;;;7.17;4.13;;;;;;;-141.97;56.97;47859.28;4993320;28;20321;-85
2022/11/25 06:03:24;;;;;;;3.50;2.50;;;;;;;-141.97;56.68;47849.69;4992699;28;20344;-86
2022/11/25 06:05:49;;;;;;;3.47;2.90;;;;;;;-141.97;56.97;47824.69;4992022;28;20187;-85
2022/11/25 06:08:15;;;;;;;6.47;3.67;;;;;;;-141.97;57.24;47734.34;4989701;28;20242;-86
2022/11/25 06:10:41;;;;;;;4.67;2.97;;;;;;;-141.97;57.34;47778.56;4992107;28;20183;-86
2022/11/25 06:13:08;;;;;;;6.57;3.13;;;;;;;-141.97;57.07;47763.19;4993510;28;20194;-86
2022/11/25 06:15:33;;;;;;;7.17;3.93;;;;;;;-141.97;57.27;47788.19;4992264;28;20188;-86
2022/11/25 06:17:59;;;;;;;7.63;4.27;;;;;;;-141.97;57.26;47768.94;4987010;28;20187;-87
2022/11/25 06:20:26;;;;;;;10.00;5.23;;;;;;;-141.97;57.21;47718.97;4977758;28;20183;-85
2022/11/25 06:22:51;;;;;;;6.37;2.80;;;;;;;-141.97;57.37;47803.56;4991383;28;20640;-85
2022/11/25 06:25:17;;;;;;;4.63;3.07;;;;;;;-141.97;56.54;47778.56;4991709;28;20192;-85
2022/11/25 06:27:42;;;;;;;4.63;3.07;;;;;;;-141.97;56.73;47832.38;4962423;28;20700;-85
2022/11/25 06:30:08;;;;;;;5.43;3.47;;;;;;;-141.97;56.91;47811.25;4995138;28;20211;-85
2022/11/25 06:32:33;;;;;;;5.57;3.60;;;;;;;-141.97;56.88;47715.13;4994643;28;20175;-85
2022/11/25 06:34:59;;;;;;;6.27;3.53;;;;;;;-141.97;56.77;47718.97;4995896;28;20695;-84
2022/11/25 06:37:24;;;;;;;4.77;3.07;;;;;;;-141.97;56.90;47797.78;4995071;28;20259;-85
2022/11/25 06:39:50;;;;;;;6.63;3.03;;;;;;;-141.97;57.00;47857.38;4994706;28;20191;-84
2022/11/25 06:42:15;;;;;;;4.97;3.13;;;;;;;-141.97;57.08;47788.19;4994411;28;20187;-85
2022/11/25 06:44:40;;;;;;;6.37;3.57;;;;;;;-141.97;57.37;47770.88;4994595;28;20183;-84
2022/11/25 06:47:06;;;;;;;5.67;4.03;;;;;;;-141.97;57.68;47792.03;4994803;28;20195;-84
2022/11/25 06:49:31;;;;;;;14.53;7.00;;;;;;;-141.97;57.58;47776.63;4994428;28;20586;-85
2022/11/25 06:51:56;;;;;;;15.00;7.80;;;;;;;-141.97;57.03;47759.34;4994142;28;20194;-84
2022/11/25 06:54:22;;;;;;;8.57;4.27;;;;;;;-141.97;56.87;47730.50;4994149;28;20641;-84
2022/11/25 06:56:50;;;;;;;4.87;3.33;;;;;;;-141.97;57.17;47788.19;4995573;28;20183;-84
2022/11/25 06:59:17;;;;;;;5.53;3.40;;;;;;;-141.97;57.17;47880.44;4994501;28;20191;-84
2022/11/25 07:01:42;;;;;;;7.63;3.77;;;;;;;-141.97;57.08;47780.47;4994909;28;20184;-84
2022/11/25 07:04:08;;;;;;;7.00;2.90;;;;;;;-141.97;57.27;47817.00;4994315;28;20704;-86
2022/11/25 07:06:33;;;;;;;6.93;3.90;;;;;;;-141.97;57.07;47718.97;4993860;28;20833;-85
2022/11/25 07:08:59;;;;;;;4.80;3.30;;;;;;;-141.97;57.32;47792.03;4993724;28;20211;-85
2022/11/25 07:11:27;;;;;;;7.17;4.23;;;;;;;-141.97;57.26;47743.97;4992626;28;20191;-85
2022/11/25 07:13:55;;;;;;;5.87;3.67;;;;;;;-141.97;57.56;47786.25;4993781;28;20211;-86
2022/11/25 07:16:21;;;;;;;5.70;2.70;;;;;;;-141.97;57.34;47772.78;4993178;28;20238;-85
2022/11/25 07:18:47;;;;;;;4.73;2.90;;;;;;;-141.97;57.58;47757.41;4993251;28;20195;-85
2022/11/25 07:21:21;;;;;;;4.47;2.87;;;;;;;-141.97;57.31;47776.63;4989400;28;20203;-84
2022/11/25 07:23:47;;;;;;;5.97;3.00;;;;;;;-141.97;57.40;47765.09;4991665;28;20231;-85
2022/11/25 07:26:21;;;;;;;4.93;3.53;;;;;;;-141.97;57.79;47788.19;4980731;28;20183;-85
2022/11/25 07:28:48;;;;;;;5.57;3.17;;;;;;;-141.97;57.38;47722.81;4998064;28;20235;-85
2022/11/25 07:31:18;;;;;;;16.43;5.23;;;;;;;-141.97;57.49;47749.72;4995806;28;20660;-83
2022/11/25 07:33:44;;;;;;;9.40;4.93;;;;;;;-141.97;56.88;47768.94;5002065;28;20198;-86
2022/11/25 07:36:12;;;;;;;14.50;6.07;;;;;;;-141.97;57.51;47751.66;5001695;28;20199;-87
2022/11/25 07:38:39;;;;;;;7.87;4.40;;;;;;;-141.97;56.89;47799.72;4984774;28;20195;-86
2022/11/25 07:41:15;;;;;;;14.20;7.17;;;;;;;-141.97;57.50;47755.50;4999017;28;20190;-87
2022/11/25 07:43:44;;;;;;;4.50;3.23;;;;;;;-141.97;57.13;47742.03;4997964;28;20182;-86
2022/11/25 07:46:10;;;;;;;7.17;3.93;;;;;;;-141.97;57.32;47657.47;5010862;28;20199;-86
2022/11/25 07:48:36;;;;;;;6.00;4.30;;;;;;;-141.97;56.97;47799.72;5003764;28;20203;-89
2022/11/25 07:51:01;;;;;;;6.47;3.47;;;;;;;-141.97;56.61;47651.69;4996872;28;20189;-86
2022/11/25 07:53:27;;;;;;;4.67;3.37;;;;;;;-141.97;57.00;47786.25;4997272;28;20221;-86
2022/11/25 07:55:52;;;;;;;9.30;6.60;;;;;;;-141.97;56.77;47726.66;4994872;28;20245;-86
2022/11/25 07:58:17;;;;;;;3.43;3.03;;;;;;;-141.97;56.79;47780.47;4994254;28;20226;-86
2022/11/25 08:00:43;;;;;;;5.77;3.93;;;;;;;-141.97;56.12;47790.09;5000290;28;20183;-86
2022/11/25 08:03:09;;;;;;;5.23;3.37;;;;;;;-141.97;56.43;47778.56;4990475;28;20188;-86
2022/11/25 08:05:34;;;;;;;7.43;4.60;;;;;;;-141.97;56.21;47845.84;4990587;28;20198;-87
2022/11/25 08:07:59;;;;;;;7.73;4.40;;;;;;;-141.97;56.01;47786.25;5007828;28;20206;-85
2022/11/25 08:10:25;;;;;;;9.50;6.13;;;;;;;-141.97;56.23;47753.56;5010190;28;20296;-86
2022/11/25 08:12:51;;;;;;;6.03;3.50;;;;;;;-141.97;55.79;47890.06;5003982;28;20205;-84
2022/11/25 08:15:16;;;;;;;11.93;5.57;;;;;;;-141.97;56.10;47767.03;4999937;28;20184;-83
2022/11/25 08:17:42;;;;;;;5.37;3.97;;;;;;;-141.97;55.44;47792.03;4995800;28;20187;-85
2022/11/25 08:20:07;;;;;;;8.63;4.53;;;;;;;-141.97;55.17;47772.78;4978356;28;20202;-84
2022/11/25 08:22:33;;;;;;;3.73;2.43;;;;;;;-141.97;54.89;47742.03;4999806;28;20218;-85
2022/11/25 08:24:58;;;;;;;5.33;3.07;;;;;;;-141.97;53.94;47672.84;5000730;28;20198;-85
2022/11/25 08:27:24;;;;;;;6.87;4.00;;;;;;;-141.97;52.79;47865.06;4990185;28;20227;-86
2022/11/25 08:29:49;;;;;;;12.60;6.43;;;;;;;-141.97;51.54;47715.13;5000146;28;20250;-83
2022/11/25 08:32:14;;;;;;;7.00;4.53;;;;;;;-141.97;50.26;47743.97;5001355;28;20187;-84
2022/11/25 08:34:41;;;;;;;4.00;2.87;;;;;;;-141.97;50.43;47636.31;4994943;28;20233;-86
2022/11/25 08:37:06;;;;;;;5.67;3.00;;;;;;;-141.97;49.63;47768.94;4992247;28;20296;-89
2022/11/25 08:39:31;;;;;;;3.93;2.97;;;;;;;-141.97;49.39;47805.47;4991415;28;20363;-86
2022/11/25 08:41:57;;;;;;;6.87;2.83;;;;;;;-141.97;49.13;47747.81;4992168;28;20186;-86
2022/11/25 08:44:27;;;;;;;2.90;2.20;;;;;;;-141.97;49.22;47776.63;4992447;28;20719;-85
2022/11/25 08:46:52;;;;;;;6.63;3.60;;;;;;;-141.97;49.37;47824.69;4988281;28;20255;-85
2022/11/25 08:49:18;;;;;;;6.23;3.13;;;;;;;-141.97;48.05;47780.47;5002842;28;20225;-87
2022/11/25 08:51:44;;;;;;;3.67;2.17;;;;;;;-141.97;47.49;47699.75;5009539;28;20245;-85
2022/11/25 08:54:09;;;;;;;4.30;2.63;;;;;;;-141.97;47.83;47828.53;4993615;28;20190;-89
2022/11/25 08:56:35;;;;;;;4.97;2.43;;;;;;;-141.97;48.03;47786.25;4992686;28;20191;-84
2022/11/25 08:59:01;;;;;;;5.77;2.70;;;;;;;-141.97;48.38;47842.00;4990708;28;20199;-85
2022/11/25 09:01:27;;;;;;;7.30;3.60;;;;;;;-141.97;48.07;47672.84;4992730;28;20203;-84
2022/11/25 09:03:54;;;;;;;3.50;2.30;;;;;;;-141.97;47.29;47799.72;4992265;28;20274;-87
2022/11/25 09:06:21;;;;;;;7.60;3.27;;;;;;;-141.97;46.56;47707.44;4975695;28;20183;-87
2022/11/25 09:08:49;;;;;;;5.53;3.23;;;;;;;-141.97;45.88;47759.34;4995989;28;20199;-87
2022/11/25 09:11:15;;;;;;;5.90;3.13;;;;;;;-141.97;45.55;47718.97;4996529;28;20571;-87
2022/11/25 09:13:41;;;;;;;4.43;2.73;;;;;;;-141.97;45.06;47765.09;4991941;28;20183;-87
2022/11/25 09:16:08;;;;;;;4.17;2.33;;;;;;;-141.97;45.17;47768.94;4991760;28;20213;-87
2022/11/25 09:18:35;;;;;;;2.37;2.00;;;;;;;-141.97;45.45;47726.66;4991100;28;20257;-87
2022/11/25 09:21:10;;;;;;;10.97;5.77;;;;;;;-141.97;45.69;47770.88;4992739;28;20593;-87
2022/11/25 09:23:37;;;;;;;13.27;6.97;;;;;;;-141.97;45.67;47740.13;4991515;28;20218;-88
2022/11/25 09:26:04;;;;;;;6.63;4.30;;;;;;;-141.97;45.45;47830.47;4995167;28;20211;-87
2022/11/25 09:28:29;;;;;;;4.60;3.57;;;;;;;-141.97;45.79;47884.28;4980619;28;20610;-86
2022/11/25 09:30:55;;;;;;;3.80;2.53;;;;;;;-141.97;46.29;47845.84;4992492;28;20266;-86
2022/11/25 09:33:20;;;;;;;9.57;6.80;;;;;;;-141.97;45.80;47749.72;4992335;28;20190;-87
2022/11/25 09:35:47;;;;;;;5.70;4.07;;;;;;;-141.97;44.85;47715.13;4975275;28;20187;-87
2022/11/25 09:38:13;;;;;;;4.10;2.30;;;;;;;-141.97;44.23;47742.03;4988463;28;20279;-87
2022/11/25 09:41:02;;;;;;;3.57;2.40;;;;;;;-141.97;43.64;47728.59;4975030;28;20935;-89
2022/11/25 09:47:17;;;;;;;8.17;4.23;;;;;;;-141.97;44.39;47738.19;4971425;28;20210;-84
2022/11/25 09:50:15;;;;;;;12.83;5.67;;;;;;;-141.97;44.40;47738.19;4988284;28;20211;-83
2022/11/25 09:53:08;;;;;;;4.50;2.80;;;;;;;-141.97;44.04;47678.63;4911911;29;20240;-84
2022/11/25 09:55:46;;;;;;;3.90;2.07;;;;;;;-141.97;43.67;47884.28;4911488;29;20600;-84
2022/11/25 09:58:14;;;;;;;4.40;2.63;;;;;;;-141.97;43.44;47734.34;4914208;29;20201;-83
2022/11/25 10:00:42;;;;;;;8.43;5.13;;;;;;;-141.97;42.93;47734.34;4910185;29;20209;-84
2022/11/25 10:03:34;;;;;;;5.67;3.70;;;;;;;-141.97;41.36;47730.50;4912405;29;20781;-83
2022/11/25 10:06:09;;;;;;;2.60;1.80;;;;;;;-141.97;41.06;47834.31;4915468;29;20284;-83
2022/11/25 10:08:39;;;;;;;2.80;2.17;;;;;;;-141.97;41.27;47890.06;4914859;29;20201;-84
2022/11/25 10:11:20;;;;;;;2.93;2.20;;;;;;;-141.97;40.97;47743.97;4915221;29;20194;-84
2022/11/25 10:14:02;;;;;;;2.70;2.10;;;;;;;-141.97;41.15;47726.66;4915168;29;20194;-85
2022/11/25 10:17:02;;;;;;;6.73;3.60;;;;;;;-141.97;40.58;47728.59;4914950;29;20342;-83
2022/11/25 10:19:53;;;;;;;3.00;2.20;;;;;;;-141.97;41.18;47745.88;4838836;29;20247;-85
2022/11/25 10:22:36;;;;;;;3.07;2.00;;;;;;;-141.97;42.23;47770.88;4837079;29;20235;-85
2022/11/25 10:25:14;;;;;;;5.10;3.20;;;;;;;-141.97;42.21;47726.66;4840018;29;20232;-86
2022/11/25 10:27:57;;;;;;;3.17;2.33;;;;;;;-141.97;42.02;47759.34;4820152;29;20672;-85
2022/11/25 10:30:26;;;;;;;5.63;2.60;;;;;;;-141.97;42.20;47718.97;4882664;29;20660;-85
2022/11/25 10:33:02;;;;;;;2.67;1.90;;;;;;;-141.97;42.22;47734.34;4915390;29;20710;-86
2022/11/25 10:35:34;;;;;;;3.07;2.20;;;;;;;-141.97;41.44;47743.97;4918069;29;20200;-87
2022/11/25 10:38:04;;;;;;;2.60;2.17;;;;;;;-141.97;41.79;47711.28;4920083;29;20225;-87
2022/11/25 10:40:30;;;;;;;4.17;2.70;;;;;;;-141.97;41.01;47695.91;4922918;29;20202;-89
2022/11/25 10:42:55;;;;;;;4.33;2.50;;;;;;;-141.97;40.66;47678.63;4904602;29;20198;-91
2022/11/25 10:45:29;;;;;;;6.07;3.70;;;;;;;-141.97;41.12;47753.56;4909900;29;20189;-88
2022/11/25 10:47:59;;;;;;;10.20;5.37;;;;;;;-141.97;41.45;47730.50;4929167;29;20202;-88
2022/11/25 10:50:50;;;;;;;5.00;3.53;;;;;;;-141.97;40.86;47742.03;4922207;29;20214;-87
2022/11/25 10:53:20;;;;;;;4.70;3.63;;;;;;;-141.97;40.95;47743.97;4919667;29;20198;-89
2022/11/25 10:56:04;;;;;;;4.37;2.20;;;;;;;-141.97;41.28;47767.03;4990594;28;20204;-89
2022/11/25 10:58:36;;;;;;;5.17;3.00;;;;;;;-141.97;41.33;47667.06;4989532;28;20198;-88
2022/11/25 11:01:20;;;;;;;4.50;2.80;;;;;;;-141.97;41.07;47761.25;5009470;28;20203;-88
2022/11/25 11:03:52;;;;;;;5.23;3.60;;;;;;;-141.97;41.00;47755.50;5009399;28;20191;-88
2022/11/25 11:06:31;;;;;;;5.40;2.83;;;;;;;-141.97;41.33;47749.72;5009356;28;20238;-89
2022/11/25 11:08:56;;;;;;;4.37;2.90;;;;;;;-141.97;41.16;47782.41;5007928;28;20257;-87
2022/11/25 11:11:23;;;;;;;3.80;2.27;;;;;;;-141.97;41.22;47701.69;5008461;28;20183;-86
2022/11/25 11:13:56;;;;;;;3.57;2.53;;;;;;;-141.97;41.18;47734.34;5007478;28;20187;-87
2022/11/25 11:16:44;;;;;;;4.17;2.80;;;;;;;-141.97;41.42;47807.41;5004168;28;20215;-86
2022/11/25 11:19:26;;;;;;;4.77;2.17;;;;;;;-141.97;41.19;47738.19;5000900;28;20183;-86
2022/11/25 11:21:53;;;;;;;4.73;2.53;;;;;;;-141.97;41.16;47740.13;4999042;28;20197;-85
2022/11/25 11:24:22;;;;;;;3.70;1.93;;;;;;;-141.97;41.10;47740.13;5002132;28;20219;-85
2022/11/25 11:27:09;;;;;;;3.00;2.10;;;;;;;-141.97;41.35;47726.66;5007075;28;20184;-86
2022/11/25 11:29:35;;;;;;;5.40;2.57;;;;;;;-141.97;40.90;47828.53;5004004;28;20203;-87
2022/11/25 11:32:04;;;;;;;2.90;2.10;;;;;;;-141.97;41.01;47730.50;5001341;28;20187;-86